Time;durP1;ratioP1;P1;durP2;ratioP2;P2;SDS_P1;SDS_P2;PMS_P1;PMS_P2;Temp;Humidity;BMP_temperature;BMP_pressure;BME280_temperature;BME280_humidity;BME280_pressure;Samples;Min_cycle;Max_cycle;Signal;HPM_P1;HPM_P2
2021/05/26 00:00:54;;;;;;;;;;;;;;;17.63;60.62;100451.32;1761179;81;20180;-64
2021/05/26 00:03:21;;;;;;;;;;;;;;;17.61;60.71;100441.84;1742590;81;20576;-64
2021/05/26 00:05:48;;;;;;;;;;;;;;;17.57;60.85;100444.25;1765743;79;20203;-65
2021/05/26 00:08:28;;;;;;;;;;;;;;;17.53;61.02;100440.97;1766968;80;21148;-63
2021/05/26 00:10:57;;;;;;;;;;;;;;;17.49;61.07;100436.59;1774261;80;20160;-64
2021/05/26 00:13:25;;;;;;;;;;;;;;;17.46;61.19;100437.13;1776149;80;20148;-63
2021/05/26 00:15:54;;;;;;;;;;;;;;;17.43;61.30;100437.14;1774045;80;20164;-64
2021/05/26 00:18:22;;;;;;;;;;;;;;;17.41;61.39;100439.82;1776206;80;20171;-63
2021/05/26 00:20:49;;;;;;;;;;;;;;;17.39;61.39;100436.02;1776393;80;21075;-64
2021/05/26 00:23:15;;;;;;;;;;;;;;;17.37;61.43;100436.80;1776109;80;20707;-65
2021/05/26 00:25:42;;;;;;;;;;;;;;;17.34;61.45;100436.81;1776287;80;20179;-63
2021/05/26 00:28:08;;;;;;;;;;;;;;;17.32;61.48;100437.59;1776723;80;20136;-64
2021/05/26 00:30:43;;;;;;;;;;;;;;;17.32;61.52;100443.56;1776347;80;20176;-64
2021/05/26 00:33:04;;;;;;;;;;;;;;;17.30;61.57;100438.41;1775911;80;21102;-64
2021/05/26 00:35:31;;;;;;;;;;;;;;;17.31;61.65;100442.75;1776333;80;20543;-64
2021/05/26 00:37:57;;;;;;;;;;;;;;;17.32;61.70;100445.72;1776311;80;20176;-64
2021/05/26 00:40:24;;;;;;;;;;;;;;;17.32;61.67;100451.14;1776714;80;20576;-64
2021/05/26 00:42:50;;;;;;;;;;;;;;;17.31;61.69;100448.17;1776906;80;20557;-65
2021/05/26 00:45:18;;;;;;;;;;;;;;;17.29;61.74;100453.02;1776681;80;21134;-64
2021/05/26 00:47:46;;;;;;;;;;;;;;;17.26;61.78;100450.03;1776174;80;20171;-64
2021/05/26 00:50:16;;;;;;;;;;;;;;;17.23;61.88;100447.30;1776190;80;20230;-65
2021/05/26 00:52:43;;;;;;;;;;;;;;;17.20;61.94;100455.94;1776297;80;20171;-63
2021/05/26 00:55:12;;;;;;;;;;;;;;;17.18;62.04;100454.56;1777860;80;20239;-64
2021/05/26 00:57:39;;;;;;;;;;;;;;;17.14;62.11;100453.73;1752955;80;21099;-64
2021/05/26 01:00:07;;;;;;;;;;;;;;;17.10;62.24;100459.38;1776488;80;20219;-64
2021/05/26 01:02:34;;;;;;;;;;;;;;;17.06;62.38;100457.45;1776633;80;20156;-65
2021/05/26 01:05:01;;;;;;;;;;;;;;;17.01;62.60;100456.88;1752549;80;20148;-64
2021/05/26 01:07:28;;;;;;;;;;;;;;;16.98;62.78;100456.86;1776673;80;20588;-65
2021/05/26 01:09:57;;;;;;;;;;;;;;;16.97;62.90;100454.41;1768330;80;20195;-64
2021/05/26 01:12:25;;;;;;;;;;;;;;;16.97;62.90;100457.12;1765497;81;20180;-64
2021/05/26 01:14:53;;;;;;;;;;;;;;;16.95;62.98;100458.73;1765766;81;20160;-64
2021/05/26 01:17:20;;;;;;;;;;;;;;;16.95;63.12;100457.92;1765658;81;20175;-65
2021/05/26 01:19:47;;;;;;;;;;;;;;;16.95;63.39;100466.05;1765685;81;20588;-63
2021/05/26 01:22:14;;;;;;;;;;;;;;;16.93;63.48;100469.53;1760452;81;21062;-64
2021/05/26 01:24:41;;;;;;;;;;;;;;;16.90;63.59;100470.05;1765012;79;20183;-65
2021/05/26 01:27:08;;;;;;;;;;;;;;;16.84;63.68;100468.34;1764954;81;20144;-65
2021/05/26 01:29:35;;;;;;;;;;;;;;;16.79;63.79;100465.06;1765326;79;20557;-65
2021/05/26 01:32:03;;;;;;;;;;;;;;;16.75;63.99;100465.29;1767862;79;20591;-64
2021/05/26 01:34:31;;;;;;;;;;;;;;;16.69;64.27;100469.03;1765573;81;21160;-64
2021/05/26 01:36:58;;;;;;;;;;;;;;;16.63;64.52;100471.67;1765685;81;20192;-63
2021/05/26 01:39:24;;;;;;;;;;;;;;;16.59;64.74;100468.38;1767046;79;20176;-65
2021/05/26 01:41:52;;;;;;;;;;;;;;;16.54;64.92;100466.45;1742613;81;20196;-64
2021/05/26 01:44:19;;;;;;;;;;;;;;;16.51;65.11;100472.92;1764908;81;20217;-64
2021/05/26 01:46:49;;;;;;;;;;;;;;;16.46;65.25;100469.62;1740567;81;21096;-65
2021/05/26 01:49:16;;;;;;;;;;;;;;;16.42;65.42;100471.20;1762985;81;20144;-65
2021/05/26 01:51:43;;;;;;;;;;;;;;;16.37;65.55;100469.78;1764994;81;20192;-65
2021/05/26 01:54:10;;;;;;;;;;;;;;;16.32;65.81;100466.48;1765236;81;20165;-64
2021/05/26 01:56:37;;;;;;;;;;;;;;;16.28;65.97;100466.70;1765033;79;20204;-65
2021/05/26 01:59:09;;;;;;;;;;;;;;;16.25;66.12;100469.41;1765116;79;21094;-65
2021/05/26 02:01:36;;;;;;;;;;;;;;;16.23;66.31;100468.02;1765049;81;20175;-66
2021/05/26 02:04:09;;;;;;;;;;;;;;;16.23;66.45;100473.42;1730329;82;20146;-64
2021/05/26 02:06:36;;;;;;;;;;;;;;;16.21;66.54;100470.14;1717477;83;20170;-64
2021/05/26 02:09:05;;;;;;;;;;;;;;;16.19;66.63;100467.69;1725054;81;20226;-65
2021/05/26 02:14:21;;;;;;;;;;;;;;;16.18;66.81;100472.00;1741854;81;20154;-64
2021/05/26 02:16:50;;;;;;;;;;;;;;;16.18;66.75;100474.70;1736828;81;20192;-64
2021/05/26 02:19:17;;;;;;;;;;;;;;;16.14;66.77;100468.20;1728905;81;20343;-64
2021/05/26 02:21:45;;;;;;;;;;;;;;;16.12;66.87;100467.06;1719283;81;20149;-65
2021/05/26 02:24:12;;;;;;;;;;;;;;;16.14;66.94;100469.00;1718938;81;21094;-65
2021/05/26 02:26:39;;;;;;;;;;;;;;;16.17;66.99;100467.69;1707836;81;20523;-66
2021/05/26 02:29:07;;;;;;;;;;;;;;;16.22;66.93;100468.53;1725010;82;20189;-64
2021/05/26 02:31:38;;;;;;;;;;;;;;;16.27;66.86;100463.20;1717384;83;20189;-64
2021/05/26 02:34:05;;;;;;;;;;;;;;;16.34;66.61;100471.13;1717967;83;20162;-64
2021/05/26 02:36:32;;;;;;;;;;;;;;;16.41;66.46;100475.78;1717564;83;21837;-63
2021/05/26 02:38:59;;;;;;;;;;;;;;;16.46;66.26;100481.26;1718064;83;20153;-65
2021/05/26 02:41:26;;;;;;;;;;;;;;;16.48;66.21;100481.55;1707015;83;20182;-65
2021/05/26 02:43:52;;;;;;;;;;;;;;;16.46;66.23;100472.34;1717276;83;20296;-65
2021/05/26 02:46:21;;;;;;;;;;;;;;;16.45;66.25;100476.91;1717425;83;20566;-63
2021/05/26 02:48:50;;;;;;;;;;;;;;;16.44;66.39;100479.88;1717654;83;20165;-64
2021/05/26 02:51:17;;;;;;;;;;;;;;;16.45;66.51;100482.87;1718579;82;20229;-64
2021/05/26 02:53:44;;;;;;;;;;;;;;;16.50;66.45;100478.84;1717650;82;20269;-64
2021/05/26 02:56:12;;;;;;;;;;;;;;;16.54;66.36;100481.33;1718118;83;20193;-65
2021/05/26 02:58:40;;;;;;;;;;;;;;;16.59;66.22;100481.40;1718221;82;20557;-64
2021/05/26 03:01:22;;;;;;;;;;;;;;;16.63;66.14;100485.20;1695952;83;21081;-65
2021/05/26 03:04:07;;;;;;;;;;;;;;;16.68;66.06;100484.46;1715379;83;20162;-65
2021/05/26 03:06:36;;;;;;;;;;;;;;;16.70;65.91;100480.95;1717210;81;20210;-65
2021/05/26 03:09:04;;;;;;;;;;;;;;;16.75;65.69;100482.34;1720621;82;20567;-65
2021/05/26 03:11:42;;;;;;;;;;;;;;;16.81;65.44;100480.50;1779784;80;20293;-65
2021/05/26 03:14:13;;;;;;;;;;;;;;;16.87;65.34;100483.59;1784776;80;21691;-64
2021/05/26 03:16:43;;;;;;;;;;;;;;;16.94;65.35;100482.81;1785249;80;20599;-66
2021/05/26 03:19:10;;;;;;;;;;;;;;;17.03;65.12;100483.16;1785182;80;20179;-65
2021/05/26 03:21:39;;;;;;;;;;;;;;;17.14;64.79;100482.72;1785539;80;20191;-64
2021/05/26 03:24:10;;;;;;;;;;;;;;;17.21;64.56;100483.31;1776143;80;20214;-64
2021/05/26 03:26:39;;;;;;;;;;;;;;;17.29;64.33;100480.11;1784905;80;21029;-64
2021/05/26 03:29:05;;;;;;;;;;;;;;;17.37;64.15;100484.22;1779136;80;20239;-64
2021/05/26 03:31:33;;;;;;;;;;;;;;;17.46;63.98;100486.73;1784675;80;20203;-65
2021/05/26 03:34:01;;;;;;;;;;;;;;;17.57;63.66;100487.61;1781856;80;20182;-65
2021/05/26 03:36:28;;;;;;;;;;;;;;;17.67;63.42;100490.38;1785371;80;20286;-66
2021/05/26 03:38:54;;;;;;;;;;;;;;;17.79;63.42;100493.44;1785028;80;21695;-64
2021/05/26 03:41:22;;;;;;;;;;;;;;;18.01;62.87;100495.46;1784731;80;20191;-64
2021/05/26 03:43:49;;;;;;;;;;;;;;;18.63;62.33;100494.84;1781876;80;20607;-66
2021/05/26 03:46:16;;;;;;;;;;;;;;;19.71;60.47;100496.17;1785256;80;20183;-65
2021/05/26 03:48:45;;;;;;;;;;;;;;;20.96;57.24;100496.67;1785026;80;20175;-65
2021/05/26 03:51:12;;;;;;;;;;;;;;;22.15;53.07;100495.75;1784950;80;21144;-65
2021/05/26 03:53:40;;;;;;;;;;;;;;;23.14;50.18;100493.25;1759227;80;20167;-66
2021/05/26 03:56:09;;;;;;;;;;;;;;;23.99;48.03;100495.00;1777483;80;20231;-67
2021/05/26 03:58:58;;;;;;;;;;;;;;;24.75;46.14;100493.89;1763624;80;20211;-66
2021/05/26 04:01:27;;;;;;;;;;;;;;;25.55;44.02;100494.64;1783272;80;20199;-66
2021/05/26 04:03:53;;;;;;;;;;;;;;;26.08;43.08;100493.48;1784977;80;21134;-65
2021/05/26 04:06:20;;;;;;;;;;;;;;;26.27;42.61;100499.48;1784502;80;20186;-66
2021/05/26 04:08:47;;;;;;;;;;;;;;;26.44;42.36;100504.17;1784691;80;20258;-66
2021/05/26 04:11:15;;;;;;;;;;;;;;;26.41;42.04;100508.94;1759116;80;20573;-65
2021/05/26 04:13:44;;;;;;;;;;;;;;;26.08;42.33;100507.20;1722735;82;20240;-68
2021/05/26 04:16:27;;;;;;;;;;;;;;;25.99;43.22;100509.91;1736794;82;21204;-67
2021/05/26 04:18:56;;;;;;;;;;;;;;;26.32;42.19;100505.38;1732345;81;20247;-67
2021/05/26 04:21:23;;;;;;;;;;;;;;;26.81;41.16;100508.02;1750558;81;20188;-66
2021/05/26 04:23:51;;;;;;;;;;;;;;;27.44;40.48;100509.78;1749916;82;20652;-66
2021/05/26 04:26:18;;;;;;;;;;;;;;;28.17;39.79;100512.16;1749434;82;20224;-65
2021/05/26 04:28:45;;;;;;;;;;;;;;;28.95;38.65;100512.13;1749728;82;21712;-66
2021/05/26 04:31:13;;;;;;;;;;;;;;;29.67;37.17;100504.37;1749251;82;20172;-66
2021/05/26 04:33:40;;;;;;;;;;;;;;;30.36;35.24;100501.80;1749562;82;20585;-67
2021/05/26 04:36:07;;;;;;;;;;;;;;;30.89;34.32;100503.72;1749262;82;20176;-67
2021/05/26 04:38:33;;;;;;;;;;;;;;;31.46;34.01;100507.20;1749321;82;20237;-66
2021/05/26 04:41:00;;;;;;;;;;;;;;;32.03;32.50;100509.78;1744502;82;21080;-67
2021/05/26 04:43:27;;;;;;;;;;;;;;;32.46;31.48;100504.60;1749314;82;20228;-67
2021/05/26 04:45:56;;;;;;;;;;;;;;;32.82;31.23;100515.69;1748409;81;20192;-68
2021/05/26 04:48:23;;;;;;;;;;;;;;;33.18;30.81;100512.97;1750052;81;20172;-66
2021/05/26 04:50:49;;;;;;;;;;;;;;;33.56;29.80;100511.08;1749636;82;20204;-66
2021/05/26 04:53:16;;;;;;;;;;;;;;;33.71;29.07;100516.47;1749716;82;21078;-67
2021/05/26 04:55:43;;;;;;;;;;;;;;;33.61;29.14;100521.86;1749235;82;20208;-68
2021/05/26 04:58:10;;;;;;;;;;;;;;;33.61;29.13;100524.05;1748980;82;20580;-67
2021/05/26 05:00:38;;;;;;;;;;;;;;;33.69;29.24;100523.59;1749461;82;20180;-66
2021/05/26 05:03:05;;;;;;;;;;;;;;;33.75;29.22;100521.34;1749758;80;20580;-67
2021/05/26 05:05:32;;;;;;;;;;;;;;;33.94;29.15;100528.18;1744999;82;21030;-67
2021/05/26 05:08:00;;;;;;;;;;;;;;;34.24;29.29;100526.02;1749775;81;20215;-66
2021/05/26 05:10:26;;;;;;;;;;;;;;;34.60;27.90;100522.92;1748925;82;20184;-66
2021/05/26 05:12:53;;;;;;;;;;;;;;;34.72;27.75;100529.05;1735131;82;20577;-67
2021/05/26 05:15:21;;;;;;;;;;;;;;;34.75;27.72;100537.23;1745592;81;20149;-67
2021/05/26 05:17:50;;;;;;;;;;;;;;;34.72;28.82;100542.97;1748518;82;20145;-66
2021/05/26 05:20:21;;;;;;;;;;;;;;;34.90;29.03;100541.02;1745454;82;20636;-67
2021/05/26 05:22:49;;;;;;;;;;;;;;;35.23;28.09;100539.36;1748657;81;20212;-69
2021/05/26 05:25:16;;;;;;;;;;;;;;;35.55;27.58;100545.86;1749005;81;20580;-67
2021/05/26 05:27:43;;;;;;;;;;;;;;;35.83;28.38;100555.06;1748444;82;20227;-67
2021/05/26 05:30:10;;;;;;;;;;;;;;;36.17;27.71;100551.31;1748790;81;21095;-66
2021/05/26 05:32:37;;;;;;;;;;;;;;;36.45;26.84;100553.48;1748577;82;20168;-68
2021/05/26 05:35:05;;;;;;;;;;;;;;;36.63;26.13;100552.98;1749237;81;20196;-67
2021/05/26 05:37:32;;;;;;;;;;;;;;;36.70;25.61;100554.98;1745206;82;20220;-67
2021/05/26 05:39:58;;;;;;;;;;;;;;;36.68;23.82;100555.98;1748272;81;20256;-67
2021/05/26 05:42:27;;;;;;;;;;;;;;;36.32;24.84;100555.80;1748809;81;21570;-67
2021/05/26 05:44:54;;;;;;;;;;;;;;;35.94;26.37;100554.56;1748672;81;20616;-66
2021/05/26 05:47:21;;;;;;;;;;;;;;;35.88;27.11;100548.33;1749022;81;20148;-67
2021/05/26 05:49:48;;;;;;;;;;;;;;;36.01;26.29;100540.45;1717784;83;20606;-66
2021/05/26 05:52:15;;;;;;;;;;;;;;;36.05;26.33;100537.89;1717733;83;20167;-68
2021/05/26 05:54:41;;;;;;;;;;;;;;;35.98;25.16;100535.05;1716708;83;21110;-67
2021/05/26 05:57:08;;;;;;;;;;;;;;;35.74;25.10;100528.09;1748680;80;20577;-67
2021/05/26 05:59:35;;;;;;;;;;;;;;;35.44;25.25;100525.67;1749031;82;20164;-68
2021/05/26 06:02:02;;;;;;;;;;;;;;;35.08;26.00;100521.11;1748490;81;20414;-66
2021/05/26 06:04:28;;;;;;;;;;;;;;;34.57;24.28;100529.47;1748774;82;20572;-67
2021/05/26 06:06:55;;;;;;;;;;;;;;;33.74;25.39;100530.84;1748501;80;21673;-66
2021/05/26 06:09:21;;;;;;;;;;;;;;;32.97;27.66;100527.27;1748631;82;20152;-65
2021/05/26 06:11:48;;;;;;;;;;;;;;;32.44;28.81;100520.81;1768715;80;20215;-66
2021/05/26 06:14:18;;;;;;;;;;;;;;;32.00;29.60;100524.37;1773422;80;20195;-65
2021/05/26 06:16:45;;;;;;;;;;;;;;;31.53;29.89;100524.00;1772446;81;20155;-66
2021/05/26 06:19:12;;;;;;;;;;;;;;;31.06;30.79;100526.93;1773517;81;21656;-66
2021/05/26 06:21:39;;;;;;;;;;;;;;;30.60;31.54;100527.80;1773566;81;20195;-66
2021/05/26 06:24:07;;;;;;;;;;;;;;;30.13;30.63;100531.09;1767783;80;20196;-66
2021/05/26 06:26:34;;;;;;;;;;;;;;;29.62;30.67;100525.88;1770185;80;20184;-65
2021/05/26 06:29:03;;;;;;;;;;;;;;;29.09;32.09;100529.17;1774821;80;20294;-67
2021/05/26 06:31:30;;;;;;;;;;;;;;;28.72;33.61;100534.55;1773767;80;21078;-66
2021/05/26 06:33:57;;;;;;;;;;;;;;;28.40;34.47;100533.30;1774460;80;20199;-65
2021/05/26 06:36:24;;;;;;;;;;;;;;;28.14;35.33;100532.33;1773470;81;20218;-66
2021/05/26 06:38:51;;;;;;;;;;;;;;;27.90;36.21;100535.69;1773904;80;20143;-66
2021/05/26 06:41:18;;;;;;;;;;;;;;;27.71;37.13;100527.00;1774096;80;20666;-65
2021/05/26 06:43:44;;;;;;;;;;;;;;;27.55;37.22;100528.94;1740417;80;21182;-65
2021/05/26 06:46:11;;;;;;;;;;;;;;;27.42;37.60;100532.13;1773312;80;20183;-66
2021/05/26 06:48:37;;;;;;;;;;;;;;;27.23;37.96;100533.84;1774506;80;20199;-66
2021/05/26 06:51:05;;;;;;;;;;;;;;;27.10;38.56;100536.21;1772669;81;20210;-67
2021/05/26 06:53:31;;;;;;;;;;;;;;;27.01;40.11;100537.59;1767667;80;20219;-66
2021/05/26 06:55:58;;;;;;;;;;;;;;;27.05;38.79;100535.02;1765663;81;21084;-67
2021/05/26 06:58:24;;;;;;;;;;;;;;;27.07;39.26;100533.54;1764730;81;20191;-65
2021/05/26 07:00:52;;;;;;;;;;;;;;;27.13;38.10;100529.26;1765195;79;20207;-65
2021/05/26 07:03:18;;;;;;;;;;;;;;;27.10;39.10;100534.84;1765091;81;20187;-68
2021/05/26 07:05:45;;;;;;;;;;;;;;;27.14;39.57;100537.19;1737549;79;20168;-68
2021/05/26 07:08:12;;;;;;;;;;;;;;;27.24;40.52;100529.96;1766075;79;20718;-65
2021/05/26 07:10:40;;;;;;;;;;;;;;;27.38;39.36;100531.16;1766730;80;20240;-66
2021/05/26 07:13:07;;;;;;;;;;;;;;;27.45;39.27;100529.30;1758513;81;20225;-66
2021/05/26 07:15:34;;;;;;;;;;;;;;;27.47;39.15;100524.25;1749039;82;20196;-68
2021/05/26 07:18:04;;;;;;;;;;;;;;;27.43;38.62;100530.20;1749803;82;20208;-66
2021/05/26 07:20:31;;;;;;;;;;;;;;;27.32;39.68;100535.20;1746624;82;21679;-65
2021/05/26 07:22:59;;;;;;;;;;;;;;;27.28;38.95;100533.69;1749538;82;20621;-65
2021/05/26 07:25:26;;;;;;;;;;;;;;;27.28;39.42;100527.34;1749937;82;20180;-66
2021/05/26 07:27:53;;;;;;;;;;;;;;;27.34;39.80;100530.77;1746174;82;20570;-67
2021/05/26 07:30:22;;;;;;;;;;;;;;;27.39;39.76;100527.28;1749638;82;20204;-65
2021/05/26 07:32:49;;;;;;;;;;;;;;;27.39;40.16;100525.91;1749268;82;21869;-65
2021/05/26 07:35:16;;;;;;;;;;;;;;;27.40;39.00;100527.53;1749268;82;20172;-67
2021/05/26 07:37:43;;;;;;;;;;;;;;;27.23;39.23;100520.08;1749528;82;20592;-66
2021/05/26 07:40:11;;;;;;;;;;;;;;;27.09;39.90;100527.70;1750139;82;20228;-66
2021/05/26 07:42:38;;;;;;;;;;;;;;;26.96;40.04;100530.08;1749266;82;20239;-66
2021/05/26 07:45:05;;;;;;;;;;;;;;;26.78;40.40;100530.66;1749240;82;21086;-65
2021/05/26 07:47:32;;;;;;;;;;;;;;;26.62;40.50;100527.00;1749272;82;20176;-66
2021/05/26 07:49:59;;;;;;;;;;;;;;;26.53;41.35;100539.36;1749679;82;20212;-66
2021/05/26 07:52:28;;;;;;;;;;;;;;;26.50;42.37;100532.31;1749323;82;20161;-65
2021/05/26 07:54:54;;;;;;;;;;;;;;;26.51;41.63;100526.49;1746957;82;20176;-65
2021/05/26 07:57:21;;;;;;;;;;;;;;;26.45;41.29;100531.91;1749104;82;21673;-66
2021/05/26 07:59:48;;;;;;;;;;;;;;;26.36;40.86;100526.97;1749758;82;20211;-65
2021/05/26 08:02:15;;;;;;;;;;;;;;;26.23;40.79;100533.64;1749365;82;20216;-65
2021/05/26 08:04:41;;;;;;;;;;;;;;;26.19;42.09;100526.36;1749741;82;20613;-66
2021/05/26 08:07:09;;;;;;;;;;;;;;;26.17;41.82;100534.92;1749419;80;20592;-66
2021/05/26 08:09:36;;;;;;;;;;;;;;;26.19;41.48;100534.60;1746673;82;21178;-66
2021/05/26 08:12:03;;;;;;;;;;;;;;;26.24;41.48;100530.34;1749726;80;20569;-65
2021/05/26 08:14:31;;;;;;;;;;;;;;;26.38;43.08;100537.06;1748211;82;20161;-66
2021/05/26 08:16:59;;;;;;;;;;;;;;;26.57;42.89;100533.47;1745202;82;20233;-65
2021/05/26 08:19:25;;;;;;;;;;;;;;;26.71;41.79;100533.91;1748223;82;20199;-66
2021/05/26 08:21:52;;;;;;;;;;;;;;;26.71;41.52;100544.91;1745156;81;21045;-67
2021/05/26 08:24:19;;;;;;;;;;;;;;;26.65;41.72;100534.59;1747333;82;20228;-66
2021/05/26 08:26:45;;;;;;;;;;;;;;;26.62;42.26;100538.00;1748760;81;20181;-67
2021/05/26 08:29:12;;;;;;;;;;;;;;;26.68;42.34;100544.18;1748209;81;20273;-65
2021/05/26 08:31:39;;;;;;;;;;;;;;;26.70;42.04;100539.16;1748552;81;20188;-64
2021/05/26 08:34:06;;;;;;;;;;;;;;;26.62;42.13;100537.17;1746019;81;21034;-66
2021/05/26 08:36:32;;;;;;;;;;;;;;;26.50;42.50;100546.05;1748652;81;20192;-65
2021/05/26 08:38:59;;;;;;;;;;;;;;;26.38;41.97;100536.52;1749343;81;20151;-65
2021/05/26 08:41:26;;;;;;;;;;;;;;;26.28;42.29;100538.74;1748542;82;20287;-65
2021/05/26 08:43:54;;;;;;;;;;;;;;;26.25;42.94;100545.70;1748607;81;20608;-64
2021/05/26 08:46:22;;;;;;;;;;;;;;;26.30;43.58;100541.42;1748459;82;21644;-66
2021/05/26 08:48:51;;;;;;;;;;;;;;;26.38;42.94;100539.27;1748887;81;20600;-66
2021/05/26 08:51:17;;;;;;;;;;;;;;;26.45;42.28;100541.52;1748358;82;20208;-67
2021/05/26 08:53:44;;;;;;;;;;;;;;;26.41;42.48;100533.67;1723719;81;20200;-66
2021/05/26 08:56:11;;;;;;;;;;;;;;;26.33;42.21;100534.48;1747950;81;20196;-66
2021/05/26 08:58:38;;;;;;;;;;;;;;;26.22;41.98;100535.33;1749323;81;21079;-65
2021/05/26 09:01:05;;;;;;;;;;;;;;;26.00;42.66;100529.38;1748995;81;20604;-68
2021/05/26 09:03:32;;;;;;;;;;;;;;;25.83;43.97;100532.28;1748686;82;20168;-66
2021/05/26 09:05:58;;;;;;;;;;;;;;;25.81;42.38;100530.43;1748485;82;20246;-65
2021/05/26 09:08:25;;;;;;;;;;;;;;;25.80;41.41;100528.00;1748312;81;20573;-66
2021/05/26 09:10:55;;;;;;;;;;;;;;;25.74;40.77;100530.08;1748320;79;21638;-69
2021/05/26 09:13:35;;;;;;;;;;;;;;;25.69;40.94;100520.05;1752829;80;20561;-65
2021/05/26 09:16:02;;;;;;;;;;;;;;;25.73;42.70;100522.16;1748657;81;20242;-65
2021/05/26 09:18:29;;;;;;;;;;;;;;;25.83;42.33;100521.87;1748810;81;20192;-65
2021/05/26 09:20:56;;;;;;;;;;;;;;;25.93;42.07;100523.51;1748996;81;20195;-65
2021/05/26 09:23:27;;;;;;;;;;;;;;;26.06;41.89;100518.52;1749274;81;21654;-65
2021/05/26 09:25:56;;;;;;;;;;;;;;;26.16;40.03;100522.34;1748939;82;20656;-65
2021/05/26 09:28:26;;;;;;;;;;;;;;;26.18;40.86;100526.14;1745741;82;20165;-65
2021/05/26 09:31:01;;;;;;;;;;;;;;;26.17;41.04;100525.88;1748852;81;20225;-66
2021/05/26 09:33:33;;;;;;;;;;;;;;;26.14;41.83;100534.77;1747127;82;20152;-65
2021/05/26 09:36:18;;;;;;;;;;;;;;;26.12;42.33;100530.14;1748380;81;21044;-67
2021/05/26 09:38:49;;;;;;;;;;;;;;;26.15;42.98;100528.95;1748740;81;20181;-65
2021/05/26 09:41:18;;;;;;;;;;;;;;;26.19;42.21;100533.23;1749159;81;20240;-70
2021/05/26 09:43:51;;;;;;;;;;;;;;;26.23;42.37;100521.27;1749337;82;20239;-66
2021/05/26 09:46:19;;;;;;;;;;;;;;;26.25;39.32;100518.23;1747888;82;20184;-65
2021/05/26 09:49:18;;;;;;;;;;;;;;;26.12;39.44;100518.61;1749599;82;21092;-65
2021/05/26 09:51:46;;;;;;;;;;;;;;;25.98;40.99;100520.62;1748725;82;20228;-66
2021/05/26 09:54:22;;;;;;;;;;;;;;;26.01;41.86;100515.90;1749234;81;20176;-67
2021/05/26 09:57:04;;;;;;;;;;;;;;;26.11;42.38;100513.44;1748193;82;20193;-66
2021/05/26 09:59:32;;;;;;;;;;;;;;;26.16;42.01;100516.84;1746386;82;20204;-64
2021/05/26 10:01:58;;;;;;;;;;;;;;;26.14;42.54;100514.16;1748399;81;21095;-65
2021/05/26 10:04:25;;;;;;;;;;;;;;;26.07;42.21;100516.56;1747893;82;20156;-65
2021/05/26 10:07:11;;;;;;;;;;;;;;;25.97;42.27;100521.75;1748856;80;20224;-66
2021/05/26 10:09:38;;;;;;;;;;;;;;;25.90;43.19;100515.36;1748996;81;20216;-67
2021/05/26 10:12:16;;;;;;;;;;;;;;;25.95;43.79;100515.78;1725392;82;20537;-67
2021/05/26 10:14:44;;;;;;;;;;;;;;;26.03;42.93;100513.09;1748376;82;20164;-67
2021/05/26 10:17:18;;;;;;;;;;;;;;;26.08;42.37;100513.50;1748761;82;20554;-65
2021/05/26 10:19:41;;;;;;;;;;;;;;;26.09;43.38;100508.27;1744761;82;20589;-64
2021/05/26 10:22:09;;;;;;;;;;;;;;;26.10;40.13;100500.82;1748910;81;20193;-66
2021/05/26 10:24:36;;;;;;;;;;;;;;;26.08;41.39;100506.64;1748769;81;20577;-65
2021/05/26 10:27:03;;;;;;;;;;;;;;;26.09;41.92;100498.65;1748890;82;21088;-66
2021/05/26 10:29:33;;;;;;;;;;;;;;;26.13;41.62;100496.86;1749028;82;20144;-65
2021/05/26 10:32:04;;;;;;;;;;;;;;;26.12;40.90;100498.00;1749297;81;20248;-66
2021/05/26 10:34:46;;;;;;;;;;;;;;;26.09;41.99;100488.20;1744666;82;20196;-66
2021/05/26 10:37:16;;;;;;;;;;;;;;;26.11;42.73;100484.59;1746714;82;20224;-66
2021/05/26 10:39:42;;;;;;;;;;;;;;;26.19;42.79;100489.28;1744723;82;21157;-66
2021/05/26 10:42:30;;;;;;;;;;;;;;;26.25;42.51;100487.19;1748783;82;20208;-67
2021/05/26 10:45:04;;;;;;;;;;;;;;;26.25;42.03;100488.56;1731332;82;20846;-65
2021/05/26 10:47:42;;;;;;;;;;;;;;;26.18;41.43;100487.11;1748737;82;20164;-65
2021/05/26 10:50:47;;;;;;;;;;;;;;;25.99;39.76;100483.81;1745775;82;20216;-65
2021/05/26 10:53:16;;;;;;;;;;;;;;;25.75;40.70;100483.67;1747450;82;20592;-65
2021/05/26 10:55:48;;;;;;;;;;;;;;;25.63;42.27;100481.53;1749251;80;20181;-65
2021/05/26 10:58:24;;;;;;;;;;;;;;;25.61;42.18;100475.53;1748645;81;20180;-65
2021/05/26 11:01:01;;;;;;;;;;;;;;;25.56;41.66;100483.09;1660464;86;20287;-64
2021/05/26 11:03:33;;;;;;;;;;;;;;;25.52;42.72;100480.18;1660730;86;20202;-66
2021/05/26 11:06:13;;;;;;;;;;;;;;;25.52;43.47;100473.32;1660546;84;21108;-65
2021/05/26 11:08:44;;;;;;;;;;;;;;;25.50;41.94;100475.55;1658039;86;20191;-65
2021/05/26 11:11:33;;;;;;;;;;;;;;;25.48;42.40;100479.98;1660544;86;20148;-66
2021/05/26 11:14:03;;;;;;;;;;;;;;;25.44;42.33;100475.45;1660339;86;20600;-65
2021/05/26 11:16:47;;;;;;;;;;;;;;;25.34;41.84;100477.35;1660489;86;20225;-66
2021/05/26 11:19:21;;;;;;;;;;;;;;;25.29;41.22;100475.27;1657659;86;20184;-66
2021/05/26 11:21:57;;;;;;;;;;;;;;;25.28;41.39;100477.76;1660369;86;20188;-65
2021/05/26 11:24:25;;;;;;;;;;;;;;;25.30;40.67;100474.16;1660301;86;20605;-64
2021/05/26 11:26:51;;;;;;;;;;;;;;;25.33;40.64;100470.23;1660413;86;20278;-65
2021/05/26 11:29:32;;;;;;;;;;;;;;;25.38;40.30;100476.14;1660535;85;20553;-65
2021/05/26 11:32:09;;;;;;;;;;;;;;;25.38;39.58;100473.98;1660273;86;21699;-65
2021/05/26 11:34:36;;;;;;;;;;;;;;;25.36;40.25;100476.47;1660647;86;20161;-65
2021/05/26 11:37:03;;;;;;;;;;;;;;;25.40;39.20;100468.43;1660475;86;20246;-65
2021/05/26 11:39:51;;;;;;;;;;;;;;;25.43;40.23;100464.25;1747122;82;20580;-66
2021/05/26 11:42:26;;;;;;;;;;;;;;;25.46;40.09;100468.53;1752213;81;20218;-65
2021/05/26 11:45:00;;;;;;;;;;;;;;;25.50;39.64;100463.20;1751973;81;21084;-66
2021/05/26 11:47:31;;;;;;;;;;;;;;;25.51;38.98;100461.55;1757983;81;20159;-66
2021/05/26 11:49:58;;;;;;;;;;;;;;;25.51;40.08;100459.34;1757204;81;20552;-65
2021/05/26 11:52:25;;;;;;;;;;;;;;;25.50;39.90;100458.55;1755054;81;20562;-65
2021/05/26 11:54:56;;;;;;;;;;;;;;;25.47;39.86;100463.30;1754919;81;20202;-65
2021/05/26 11:57:37;;;;;;;;;;;;;;;25.46;39.31;100454.81;1739257;81;20587;-66
2021/05/26 12:00:10;;;;;;;;;;;;;;;25.43;38.74;100462.30;1758192;81;20652;-65
2021/05/26 12:03:00;;;;;;;;;;;;;;;25.37;37.75;100462.20;1754792;81;20169;-66
2021/05/26 12:05:46;;;;;;;;;;;;;;;25.29;37.44;100457.44;1755366;81;20203;-64
2021/05/26 12:08:23;;;;;;;;;;;;;;;25.21;37.12;100461.77;1758742;81;20222;-66
2021/05/26 12:11:07;;;;;;;;;;;;;;;25.09;37.43;100454.66;1759486;81;20183;-65
2021/05/26 12:13:42;;;;;;;;;;;;;;;24.96;37.94;100457.18;1751689;81;20180;-66
2021/05/26 12:16:09;;;;;;;;;;;;;;;24.88;38.74;100453.84;1753402;81;20183;-65
2021/05/26 12:18:38;;;;;;;;;;;;;;;24.85;37.85;100453.06;1754571;81;20157;-66
2021/05/26 12:21:05;;;;;;;;;;;;;;;24.80;37.64;100451.84;1757130;81;20569;-66
2021/05/26 12:23:36;;;;;;;;;;;;;;;24.75;39.16;100450.03;1752365;81;20240;-65
2021/05/26 12:26:24;;;;;;;;;;;;;;;24.73;38.93;100441.30;1752809;81;20189;-66
2021/05/26 12:28:57;;;;;;;;;;;;;;;24.73;38.99;100443.23;1754508;81;20162;-65
2021/05/26 12:31:30;;;;;;;;;;;;;;;24.72;38.76;100447.09;1755418;81;20187;-66
2021/05/26 12:33:56;;;;;;;;;;;;;;;24.72;38.69;100442.44;1757031;81;20198;-66
2021/05/26 12:36:25;;;;;;;;;;;;;;;24.73;38.80;100445.41;1753924;81;21150;-65
2021/05/26 12:38:59;;;;;;;;;;;;;;;24.77;39.24;100444.24;1754595;81;20222;-64
2021/05/26 12:41:34;;;;;;;;;;;;;;;24.79;39.42;100446.93;1758288;80;20167;-66
2021/05/26 12:44:14;;;;;;;;;;;;;;;24.82;40.34;100446.30;1764209;80;20163;-65
2021/05/26 12:46:48;;;;;;;;;;;;;;;24.84;39.90;100440.51;1764273;80;20173;-65
2021/05/26 12:49:40;;;;;;;;;;;;;;;24.86;40.32;100434.70;1763557;80;21630;-69